sensor_id;sensor_type;location;lat;lon;timestamp;temperature;humidity
810;DHT22;387;48.772;9.186;2023-05-15T00:01:19;11.10;88.40
810;DHT22;387;48.772;9.186;2023-05-15T00:03:46;11.00;88.90
810;DHT22;387;48.772;9.186;2023-05-15T00:06:11;11.00;88.90
810;DHT22;387;48.772;9.186;2023-05-15T00:08:37;11.00;89.20
810;DHT22;387;48.772;9.186;2023-05-15T00:11:03;11.00;89.60
810;DHT22;387;48.772;9.186;2023-05-15T00:13:29;11.10;89.70
810;DHT22;387;48.772;9.186;2023-05-15T00:15:54;11.10;89.70
810;DHT22;387;48.772;9.186;2023-05-15T00:18:20;11.10;89.90
810;DHT22;387;48.772;9.186;2023-05-15T00:20:45;11.10;90.00
810;DHT22;387;48.772;9.186;2023-05-15T00:23:11;11.20;89.70
810;DHT22;387;48.772;9.186;2023-05-15T00:25:37;11.30;89.20
810;DHT22;387;48.772;9.186;2023-05-15T00:28:02;11.30;88.70
810;DHT22;387;48.772;9.186;2023-05-15T00:30:28;11.30;88.60
810;DHT22;387;48.772;9.186;2023-05-15T00:32:53;11.30;88.60
810;DHT22;387;48.772;9.186;2023-05-15T00:35:19;11.20;88.30
810;DHT22;387;48.772;9.186;2023-05-15T00:37:45;11.20;88.60
810;DHT22;387;48.772;9.186;2023-05-15T00:40:12;11.30;87.60
810;DHT22;387;48.772;9.186;2023-05-15T00:42:43;11.20;87.30
810;DHT22;387;48.772;9.186;2023-05-15T00:45:09;11.20;87.70
810;DHT22;387;48.772;9.186;2023-05-15T00:47:37;11.20;87.80
810;DHT22;387;48.772;9.186;2023-05-15T00:50:05;11.30;87.80
810;DHT22;387;48.772;9.186;2023-05-15T00:52:31;11.30;87.60
810;DHT22;387;48.772;9.186;2023-05-15T00:54:57;11.30;87.80
810;DHT22;387;48.772;9.186;2023-05-15T00:57:23;11.30;88.00
810;DHT22;387;48.772;9.186;2023-05-15T00:59:51;11.40;88.10
810;DHT22;387;48.772;9.186;2023-05-15T01:02:17;11.40;87.80
810;DHT22;387;48.772;9.186;2023-05-15T01:04:45;11.50;86.90
810;DHT22;387;48.772;9.186;2023-05-15T01:07:11;11.50;86.60
810;DHT22;387;48.772;9.186;2023-05-15T01:09:43;11.50;86.80
810;DHT22;387;48.772;9.186;2023-05-15T01:12:09;11.50;87.10
810;DHT22;387;48.772;9.186;2023-05-15T01:14:35;11.50;87.10
810;DHT22;387;48.772;9.186;2023-05-15T01:17:01;11.60;87.10
810;DHT22;387;48.772;9.186;2023-05-15T01:19:27;11.60;87.10
810;DHT22;387;48.772;9.186;2023-05-15T01:30:26;11.70;87.10
810;DHT22;387;48.772;9.186;2023-05-15T01:33:22;11.60;87.10
810;DHT22;387;48.772;9.186;2023-05-15T01:35:59;11.60;87.10
810;DHT22;387;48.772;9.186;2023-05-15T01:38:41;11.60;87.10
810;DHT22;387;48.772;9.186;2023-05-15T01:41:15;11.60;87.10
810;DHT22;387;48.772;9.186;2023-05-15T01:43:44;11.60;87.00
810;DHT22;387;48.772;9.186;2023-05-15T01:46:13;11.60;86.90
810;DHT22;387;48.772;9.186;2023-05-15T01:48:43;11.40;86.90
810;DHT22;387;48.772;9.186;2023-05-15T01:51:10;11.50;87.00
810;DHT22;387;48.772;9.186;2023-05-15T01:53:39;11.50;86.90
810;DHT22;387;48.772;9.186;2023-05-15T01:56:06;11.50;86.50
810;DHT22;387;48.772;9.186;2023-05-15T01:58:34;11.40;86.50
810;DHT22;387;48.772;9.186;2023-05-15T02:01:01;11.40;86.80
810;DHT22;387;48.772;9.186;2023-05-15T02:03:28;11.50;86.60
810;DHT22;387;48.772;9.186;2023-05-15T02:05:57;11.50;85.70
810;DHT22;387;48.772;9.186;2023-05-15T02:08:24;11.30;86.00
810;DHT22;387;48.772;9.186;2023-05-15T02:10:51;11.20;86.60
810;DHT22;387;48.772;9.186;2023-05-15T02:13:17;11.20;86.80
810;DHT22;387;48.772;9.186;2023-05-15T02:15:43;11.10;87.10
810;DHT22;387;48.772;9.186;2023-05-15T02:18:09;11.20;87.60
810;DHT22;387;48.772;9.186;2023-05-15T02:20:35;11.20;87.00
810;DHT22;387;48.772;9.186;2023-05-15T02:23:01;11.20;86.90
810;DHT22;387;48.772;9.186;2023-05-15T02:25:33;11.10;87.10
810;DHT22;387;48.772;9.186;2023-05-15T02:28:04;11.10;87.10
810;DHT22;387;48.772;9.186;2023-05-15T02:30:34;11.00;87.30
810;DHT22;387;48.772;9.186;2023-05-15T02:35:56;11.10;87.70
810;DHT22;387;48.772;9.186;2023-05-15T02:38:28;11.10;88.00
810;DHT22;387;48.772;9.186;2023-05-15T02:40:55;11.20;88.30
810;DHT22;387;48.772;9.186;2023-05-15T02:43:22;11.20;88.30
810;DHT22;387;48.772;9.186;2023-05-15T02:45:48;11.30;88.40
810;DHT22;387;48.772;9.186;2023-05-15T02:48:15;11.30;88.40
810;DHT22;387;48.772;9.186;2023-05-15T02:50:42;11.40;88.40
810;DHT22;387;48.772;9.186;2023-05-15T02:53:08;11.40;88.60
810;DHT22;387;48.772;9.186;2023-05-15T02:55:34;11.50;88.40
810;DHT22;387;48.772;9.186;2023-05-15T02:58:00;11.60;87.70
810;DHT22;387;48.772;9.186;2023-05-15T03:00:26;11.60;87.00
810;DHT22;387;48.772;9.186;2023-05-15T03:02:52;11.50;87.10
810;DHT22;387;48.772;9.186;2023-05-15T03:05:18;11.50;87.60
810;DHT22;387;48.772;9.186;2023-05-15T03:07:43;11.60;87.40
810;DHT22;387;48.772;9.186;2023-05-15T03:10:09;11.60;87.10
810;DHT22;387;48.772;9.186;2023-05-15T03:12:35;11.60;87.00
810;DHT22;387;48.772;9.186;2023-05-15T03:15:01;11.60;87.30
810;DHT22;387;48.772;9.186;2023-05-15T03:17:26;11.60;87.30
810;DHT22;387;48.772;9.186;2023-05-15T03:19:52;11.70;87.30
810;DHT22;387;48.772;9.186;2023-05-15T03:22:18;11.70;87.00
810;DHT22;387;48.772;9.186;2023-05-15T03:24:44;11.60;87.10
810;DHT22;387;48.772;9.186;2023-05-15T03:27:09;11.70;87.30
810;DHT22;387;48.772;9.186;2023-05-15T03:29:35;11.80;87.30
810;DHT22;387;48.772;9.186;2023-05-15T03:32:01;11.80;87.00
810;DHT22;387;48.772;9.186;2023-05-15T03:34:26;11.80;87.10
810;DHT22;387;48.772;9.186;2023-05-15T03:36:52;11.90;87.00
810;DHT22;387;48.772;9.186;2023-05-15T03:39:17;11.90;86.90
810;DHT22;387;48.772;9.186;2023-05-15T03:41:43;12.00;86.50
810;DHT22;387;48.772;9.186;2023-05-15T03:44:08;12.00;86.50
810;DHT22;387;48.772;9.186;2023-05-15T03:46:34;12.00;86.60
810;DHT22;387;48.772;9.186;2023-05-15T03:49:00;12.10;86.50
810;DHT22;387;48.772;9.186;2023-05-15T03:51:25;12.00;85.90
810;DHT22;387;48.772;9.186;2023-05-15T03:53:51;12.10;85.30
810;DHT22;387;48.772;9.186;2023-05-15T03:56:17;12.10;85.30
810;DHT22;387;48.772;9.186;2023-05-15T03:58:42;12.20;85.60
810;DHT22;387;48.772;9.186;2023-05-15T04:01:08;12.30;85.30
810;DHT22;387;48.772;9.186;2023-05-15T04:03:34;12.30;85.20
810;DHT22;387;48.772;9.186;2023-05-15T04:05:59;12.30;84.70
810;DHT22;387;48.772;9.186;2023-05-15T04:08:25;12.30;84.00
810;DHT22;387;48.772;9.186;2023-05-15T04:10:51;12.40;83.10
810;DHT22;387;48.772;9.186;2023-05-15T04:13:16;12.50;83.10
810;DHT22;387;48.772;9.186;2023-05-15T04:15:42;12.50;83.10
810;DHT22;387;48.772;9.186;2023-05-15T04:18:08;12.60;82.80
810;DHT22;387;48.772;9.186;2023-05-15T04:20:33;12.70;83.10
810;DHT22;387;48.772;9.186;2023-05-15T04:22:59;12.80;83.40
810;DHT22;387;48.772;9.186;2023-05-15T04:25:25;12.90;82.20
810;DHT22;387;48.772;9.186;2023-05-15T04:27:51;12.90;81.40
810;DHT22;387;48.772;9.186;2023-05-15T04:30:17;12.90;81.50
810;DHT22;387;48.772;9.186;2023-05-15T04:32:43;12.80;81.70
810;DHT22;387;48.772;9.186;2023-05-15T04:35:09;12.80;81.90
810;DHT22;387;48.772;9.186;2023-05-15T04:37:40;13.00;81.40
810;DHT22;387;48.772;9.186;2023-05-15T04:40:06;12.90;81.20
810;DHT22;387;48.772;9.186;2023-05-15T04:42:33;12.90;81.50
810;DHT22;387;48.772;9.186;2023-05-15T04:44:59;13.00;81.50
810;DHT22;387;48.772;9.186;2023-05-15T04:47:25;12.90;81.50
810;DHT22;387;48.772;9.186;2023-05-15T04:49:50;13.10;81.50
810;DHT22;387;48.772;9.186;2023-05-15T04:52:16;13.10;81.10
810;DHT22;387;48.772;9.186;2023-05-15T04:54:42;13.30;81.10
810;DHT22;387;48.772;9.186;2023-05-15T04:57:08;13.40;80.20
810;DHT22;387;48.772;9.186;2023-05-15T04:59:34;13.30;80.30
810;DHT22;387;48.772;9.186;2023-05-15T05:02:01;13.40;80.80
810;DHT22;387;48.772;9.186;2023-05-15T05:04:26;13.60;80.50
810;DHT22;387;48.772;9.186;2023-05-15T05:06:52;13.70;79.90
810;DHT22;387;48.772;9.186;2023-05-15T05:09:18;13.70;79.50
810;DHT22;387;48.772;9.186;2023-05-15T05:11:45;13.80;79.60
810;DHT22;387;48.772;9.186;2023-05-15T05:14:11;13.90;79.30
810;DHT22;387;48.772;9.186;2023-05-15T05:16:37;13.70;79.00
810;DHT22;387;48.772;9.186;2023-05-15T05:19:04;13.80;79.60
810;DHT22;387;48.772;9.186;2023-05-15T05:21:30;13.90;79.60
810;DHT22;387;48.772;9.186;2023-05-15T05:23:56;14.10;79.30
810;DHT22;387;48.772;9.186;2023-05-15T05:26:22;14.00;78.70
810;DHT22;387;48.772;9.186;2023-05-15T05:28:48;14.00;79.00
810;DHT22;387;48.772;9.186;2023-05-15T05:31:13;14.00;78.60
810;DHT22;387;48.772;9.186;2023-05-15T05:33:39;13.80;79.30
810;DHT22;387;48.772;9.186;2023-05-15T05:36:05;13.70;79.30
810;DHT22;387;48.772;9.186;2023-05-15T05:38:31;13.70;79.90
810;DHT22;387;48.772;9.186;2023-05-15T05:40:57;13.60;80.50
810;DHT22;387;48.772;9.186;2023-05-15T05:43:24;13.80;79.90
810;DHT22;387;48.772;9.186;2023-05-15T05:45:50;13.80;79.90
810;DHT22;387;48.772;9.186;2023-05-15T05:48:16;13.70;80.00
810;DHT22;387;48.772;9.186;2023-05-15T05:50:42;13.90;80.20
810;DHT22;387;48.772;9.186;2023-05-15T05:53:08;14.00;79.60
810;DHT22;387;48.772;9.186;2023-05-15T05:55:34;14.00;79.20
810;DHT22;387;48.772;9.186;2023-05-15T05:57:59;13.90;79.00
810;DHT22;387;48.772;9.186;2023-05-15T06:00:25;14.00;79.30
810;DHT22;387;48.772;9.186;2023-05-15T06:02:57;14.20;78.10
810;DHT22;387;48.772;9.186;2023-05-15T06:05:27;14.20;77.40
810;DHT22;387;48.772;9.186;2023-05-15T06:07:53;14.10;77.80
810;DHT22;387;48.772;9.186;2023-05-15T06:10:19;14.10;78.00
810;DHT22;387;48.772;9.186;2023-05-15T06:12:45;14.00;78.00
810;DHT22;387;48.772;9.186;2023-05-15T06:15:11;14.00;78.10
810;DHT22;387;48.772;9.186;2023-05-15T06:17:37;13.90;78.70
810;DHT22;387;48.772;9.186;2023-05-15T06:20:03;13.80;79.30
810;DHT22;387;48.772;9.186;2023-05-15T06:22:33;13.80;79.50
810;DHT22;387;48.772;9.186;2023-05-15T06:25:00;13.90;79.00
810;DHT22;387;48.772;9.186;2023-05-15T06:27:27;14.00;79.00
810;DHT22;387;48.772;9.186;2023-05-15T06:29:53;14.10;78.70
810;DHT22;387;48.772;9.186;2023-05-15T06:32:19;14.10;78.90
810;DHT22;387;48.772;9.186;2023-05-15T06:34:44;14.20;78.60
810;DHT22;387;48.772;9.186;2023-05-15T06:37:10;14.30;78.30
810;DHT22;387;48.772;9.186;2023-05-15T06:39:36;14.30;77.80
810;DHT22;387;48.772;9.186;2023-05-15T06:42:02;14.50;77.80
810;DHT22;387;48.772;9.186;2023-05-15T06:44:29;14.60;77.40
810;DHT22;387;48.772;9.186;2023-05-15T06:46:55;14.40;77.10
810;DHT22;387;48.772;9.186;2023-05-15T06:49:20;14.50;77.10
810;DHT22;387;48.772;9.186;2023-05-15T06:51:46;14.50;77.40
810;DHT22;387;48.772;9.186;2023-05-15T06:54:12;14.60;77.30
810;DHT22;387;48.772;9.186;2023-05-15T06:56:38;14.50;77.40
810;DHT22;387;48.772;9.186;2023-05-15T06:59:03;14.60;78.00
810;DHT22;387;48.772;9.186;2023-05-15T07:01:30;14.80;77.40
810;DHT22;387;48.772;9.186;2023-05-15T07:03:56;14.90;75.50
810;DHT22;387;48.772;9.186;2023-05-15T07:06:21;14.90;74.90
810;DHT22;387;48.772;9.186;2023-05-15T07:08:47;14.70;75.40
810;DHT22;387;48.772;9.186;2023-05-15T07:11:13;14.60;76.10
810;DHT22;387;48.772;9.186;2023-05-15T07:13:39;14.60;76.20
810;DHT22;387;48.772;9.186;2023-05-15T07:16:05;14.80;76.10
810;DHT22;387;48.772;9.186;2023-05-15T07:18:31;14.80;75.50
810;DHT22;387;48.772;9.186;2023-05-15T07:20:57;14.80;74.80
810;DHT22;387;48.772;9.186;2023-05-15T07:23:22;14.80;75.10
810;DHT22;387;48.772;9.186;2023-05-15T07:25:48;14.90;75.70
810;DHT22;387;48.772;9.186;2023-05-15T07:28:14;15.00;75.40
810;DHT22;387;48.772;9.186;2023-05-15T07:30:40;15.10;74.80
810;DHT22;387;48.772;9.186;2023-05-15T07:33:05;15.30;73.60
810;DHT22;387;48.772;9.186;2023-05-15T07:35:31;15.00;72.60
810;DHT22;387;48.772;9.186;2023-05-15T07:37:56;15.00;73.30
810;DHT22;387;48.772;9.186;2023-05-15T07:40:22;15.10;73.00
810;DHT22;387;48.772;9.186;2023-05-15T07:42:48;15.20;73.00
810;DHT22;387;48.772;9.186;2023-05-15T07:45:13;15.30;73.30
810;DHT22;387;48.772;9.186;2023-05-15T07:47:48;15.50;72.30
810;DHT22;387;48.772;9.186;2023-05-15T07:50:14;15.30;71.40
810;DHT22;387;48.772;9.186;2023-05-15T07:52:40;15.30;71.70
810;DHT22;387;48.772;9.186;2023-05-15T07:55:08;15.10;71.30
810;DHT22;387;48.772;9.186;2023-05-15T07:57:34;15.20;71.70
810;DHT22;387;48.772;9.186;2023-05-15T07:59:59;15.20;71.80
810;DHT22;387;48.772;9.186;2023-05-15T08:02:27;15.30;71.70
810;DHT22;387;48.772;9.186;2023-05-15T08:04:52;15.40;71.70
810;DHT22;387;48.772;9.186;2023-05-15T08:07:18;15.40;71.60
810;DHT22;387;48.772;9.186;2023-05-15T08:09:43;15.50;72.00
810;DHT22;387;48.772;9.186;2023-05-15T08:12:15;15.70;71.30
810;DHT22;387;48.772;9.186;2023-05-15T08:14:42;15.70;71.30
810;DHT22;387;48.772;9.186;2023-05-15T08:17:07;15.60;71.30
810;DHT22;387;48.772;9.186;2023-05-15T08:19:33;15.60;71.70
810;DHT22;387;48.772;9.186;2023-05-15T08:21:58;15.80;71.10
810;DHT22;387;48.772;9.186;2023-05-15T08:24:24;15.60;71.10
810;DHT22;387;48.772;9.186;2023-05-15T08:26:50;15.70;71.10
810;DHT22;387;48.772;9.186;2023-05-15T08:29:15;15.70;70.40
810;DHT22;387;48.772;9.186;2023-05-15T08:31:42;15.70;69.80
810;DHT22;387;48.772;9.186;2023-05-15T08:34:07;15.60;69.80
810;DHT22;387;48.772;9.186;2023-05-15T08:36:33;15.70;69.70
810;DHT22;387;48.772;9.186;2023-05-15T08:38:58;16.00;69.50
810;DHT22;387;48.772;9.186;2023-05-15T08:41:31;16.10;68.60
810;DHT22;387;48.772;9.186;2023-05-15T08:43:58;16.30;68.80
810;DHT22;387;48.772;9.186;2023-05-15T08:46:27;16.40;68.30
810;DHT22;387;48.772;9.186;2023-05-15T08:48:53;16.50;68.50
810;DHT22;387;48.772;9.186;2023-05-15T08:51:21;16.50;68.80
810;DHT22;387;48.772;9.186;2023-05-15T08:53:48;16.50;69.20
810;DHT22;387;48.772;9.186;2023-05-15T08:56:14;16.60;69.40
810;DHT22;387;48.772;9.186;2023-05-15T08:58:40;16.80;68.00
810;DHT22;387;48.772;9.186;2023-05-15T09:01:06;16.70;67.30
810;DHT22;387;48.772;9.186;2023-05-15T09:03:32;16.70;66.90
810;DHT22;387;48.772;9.186;2023-05-15T09:05:58;16.70;67.00
810;DHT22;387;48.772;9.186;2023-05-15T09:08:24;16.80;67.00
810;DHT22;387;48.772;9.186;2023-05-15T09:10:51;16.70;67.60
810;DHT22;387;48.772;9.186;2023-05-15T09:13:17;16.50;68.20
810;DHT22;387;48.772;9.186;2023-05-15T09:15:44;16.60;68.50
810;DHT22;387;48.772;9.186;2023-05-15T09:18:13;16.80;68.60
810;DHT22;387;48.772;9.186;2023-05-15T09:20:39;16.90;67.70
810;DHT22;387;48.772;9.186;2023-05-15T09:23:23;16.90;67.50
810;DHT22;387;48.772;9.186;2023-05-15T09:25:49;16.90;67.90
810;DHT22;387;48.772;9.186;2023-05-15T09:28:43;17.00;68.30
810;DHT22;387;48.772;9.186;2023-05-15T09:31:10;16.80;68.30
810;DHT22;387;48.772;9.186;2023-05-15T09:33:37;16.50;68.90
810;DHT22;387;48.772;9.186;2023-05-15T09:36:05;16.40;69.40
810;DHT22;387;48.772;9.186;2023-05-15T09:38:39;16.40;69.10
810;DHT22;387;48.772;9.186;2023-05-15T09:41:07;16.50;69.20
810;DHT22;387;48.772;9.186;2023-05-15T09:43:37;16.40;69.20
810;DHT22;387;48.772;9.186;2023-05-15T09:46:03;16.50;68.50
810;DHT22;387;48.772;9.186;2023-05-15T09:48:30;16.80;68.60
810;DHT22;387;48.772;9.186;2023-05-15T09:50:56;17.10;67.70
810;DHT22;387;48.772;9.186;2023-05-15T09:53:23;17.10;67.20
810;DHT22;387;48.772;9.186;2023-05-15T09:55:49;17.20;67.30
810;DHT22;387;48.772;9.186;2023-05-15T09:58:16;17.30;66.90
810;DHT22;387;48.772;9.186;2023-05-15T10:00:43;17.40;66.90
810;DHT22;387;48.772;9.186;2023-05-15T10:03:10;17.30;66.40
810;DHT22;387;48.772;9.186;2023-05-15T10:05:37;17.50;66.40
810;DHT22;387;48.772;9.186;2023-05-15T10:08:03;17.50;65.80
810;DHT22;387;48.772;9.186;2023-05-15T10:10:29;18.10;66.90
810;DHT22;387;48.772;9.186;2023-05-15T10:12:57;18.00;66.40
810;DHT22;387;48.772;9.186;2023-05-15T10:15:24;17.80;66.30
810;DHT22;387;48.772;9.186;2023-05-15T10:17:51;17.70;67.30
810;DHT22;387;48.772;9.186;2023-05-15T10:20:19;17.40;67.30
810;DHT22;387;48.772;9.186;2023-05-15T10:22:47;17.80;66.70
810;DHT22;387;48.772;9.186;2023-05-15T10:25:20;17.30;66.30
810;DHT22;387;48.772;9.186;2023-05-15T10:27:49;17.60;67.20
810;DHT22;387;48.772;9.186;2023-05-15T10:30:15;18.00;66.70
810;DHT22;387;48.772;9.186;2023-05-15T10:32:43;18.30;65.30
810;DHT22;387;48.772;9.186;2023-05-15T10:35:10;18.50;65.40
810;DHT22;387;48.772;9.186;2023-05-15T10:37:38;18.50;65.30
810;DHT22;387;48.772;9.186;2023-05-15T10:40:07;19.00;63.40
810;DHT22;387;48.772;9.186;2023-05-15T10:42:35;18.30;63.20
810;DHT22;387;48.772;9.186;2023-05-15T10:45:01;17.80;63.50
810;DHT22;387;48.772;9.186;2023-05-15T10:47:29;18.30;63.40
810;DHT22;387;48.772;9.186;2023-05-15T10:49:56;18.20;64.20
810;DHT22;387;48.772;9.186;2023-05-15T10:52:22;18.30;61.00
810;DHT22;387;48.772;9.186;2023-05-15T10:54:48;18.00;59.30
810;DHT22;387;48.772;9.186;2023-05-15T10:57:14;17.90;59.20
810;DHT22;387;48.772;9.186;2023-05-15T10:59:39;18.20;59.60
810;DHT22;387;48.772;9.186;2023-05-15T11:04:44;18.80;60.40
810;DHT22;387;48.772;9.186;2023-05-15T11:07:15;19.10;59.50
810;DHT22;387;48.772;9.186;2023-05-15T11:09:41;19.10;59.60
810;DHT22;387;48.772;9.186;2023-05-15T11:12:10;19.20;59.70
810;DHT22;387;48.772;9.186;2023-05-15T11:14:38;19.00;59.90
810;DHT22;387;48.772;9.186;2023-05-15T11:17:05;18.80;60.00
810;DHT22;387;48.772;9.186;2023-05-15T11:19:35;18.80;58.50
810;DHT22;387;48.772;9.186;2023-05-15T11:27:30;19.00;59.90
810;DHT22;387;48.772;9.186;2023-05-15T11:30:17;19.00;60.90
810;DHT22;387;48.772;9.186;2023-05-15T11:35:37;18.80;58.80
810;DHT22;387;48.772;9.186;2023-05-15T11:38:16;19.10;59.70
810;DHT22;387;48.772;9.186;2023-05-15T11:41:18;19.50;58.80
810;DHT22;387;48.772;9.186;2023-05-15T11:43:44;19.60;58.20
810;DHT22;387;48.772;9.186;2023-05-15T11:46:11;19.20;56.50
810;DHT22;387;48.772;9.186;2023-05-15T11:48:40;19.20;56.80
810;DHT22;387;48.772;9.186;2023-05-15T11:51:20;19.40;55.80
810;DHT22;387;48.772;9.186;2023-05-15T11:53:49;20.10;55.00
810;DHT22;387;48.772;9.186;2023-05-15T11:56:23;20.00;56.50
810;DHT22;387;48.772;9.186;2023-05-15T11:58:57;19.20;58.90
810;DHT22;387;48.772;9.186;2023-05-15T12:01:22;19.30;58.90
810;DHT22;387;48.772;9.186;2023-05-15T12:03:49;18.90;60.30
810;DHT22;387;48.772;9.186;2023-05-15T12:06:15;19.40;58.10
810;DHT22;387;48.772;9.186;2023-05-15T12:08:41;19.60;55.70
810;DHT22;387;48.772;9.186;2023-05-15T12:11:07;19.00;57.80
810;DHT22;387;48.772;9.186;2023-05-15T12:13:33;18.90;58.80
810;DHT22;387;48.772;9.186;2023-05-15T12:16:00;18.90;58.70
810;DHT22;387;48.772;9.186;2023-05-15T12:18:26;19.40;56.50
810;DHT22;387;48.772;9.186;2023-05-15T12:20:52;19.80;53.80
810;DHT22;387;48.772;9.186;2023-05-15T12:23:20;20.30;52.20
810;DHT22;387;48.772;9.186;2023-05-15T12:25:46;20.60;52.80
810;DHT22;387;48.772;9.186;2023-05-15T12:28:14;20.30;54.00
810;DHT22;387;48.772;9.186;2023-05-15T12:30:41;19.60;57.00
810;DHT22;387;48.772;9.186;2023-05-15T12:33:08;19.60;56.90
810;DHT22;387;48.772;9.186;2023-05-15T12:35:48;19.80;56.50
810;DHT22;387;48.772;9.186;2023-05-15T12:38:14;20.40;54.50
810;DHT22;387;48.772;9.186;2023-05-15T12:40:42;20.50;52.20
810;DHT22;387;48.772;9.186;2023-05-15T12:43:09;20.50;47.80
810;DHT22;387;48.772;9.186;2023-05-15T12:45:37;20.20;51.20
810;DHT22;387;48.772;9.186;2023-05-15T12:48:04;21.10;50.50
810;DHT22;387;48.772;9.186;2023-05-15T12:50:32;20.70;53.20
810;DHT22;387;48.772;9.186;2023-05-15T12:53:03;20.10;53.30
810;DHT22;387;48.772;9.186;2023-05-15T12:55:34;19.80;55.30
810;DHT22;387;48.772;9.186;2023-05-15T12:58:05;19.80;53.30
810;DHT22;387;48.772;9.186;2023-05-15T13:00:36;19.80;54.40
810;DHT22;387;48.772;9.186;2023-05-15T13:03:02;20.00;55.60
810;DHT22;387;48.772;9.186;2023-05-15T13:05:31;20.00;56.40
810;DHT22;387;48.772;9.186;2023-05-15T13:07:58;19.80;57.00
810;DHT22;387;48.772;9.186;2023-05-15T13:10:24;19.60;57.70
810;DHT22;387;48.772;9.186;2023-05-15T13:12:52;19.60;57.80
810;DHT22;387;48.772;9.186;2023-05-15T13:15:27;19.60;57.30
810;DHT22;387;48.772;9.186;2023-05-15T13:17:57;19.10;58.10
810;DHT22;387;48.772;9.186;2023-05-15T13:20:23;19.40;57.30
810;DHT22;387;48.772;9.186;2023-05-15T13:22:49;19.50;57.40
810;DHT22;387;48.772;9.186;2023-05-15T13:25:19;20.00;56.40
810;DHT22;387;48.772;9.186;2023-05-15T13:27:46;19.80;56.10
810;DHT22;387;48.772;9.186;2023-05-15T13:30:13;19.50;56.90
810;DHT22;387;48.772;9.186;2023-05-15T13:32:39;19.70;56.90
810;DHT22;387;48.772;9.186;2023-05-15T13:35:05;18.70;58.70
810;DHT22;387;48.772;9.186;2023-05-15T13:37:30;18.50;60.00
810;DHT22;387;48.772;9.186;2023-05-15T13:39:56;18.40;60.00
810;DHT22;387;48.772;9.186;2023-05-15T13:42:22;18.40;60.60
810;DHT22;387;48.772;9.186;2023-05-15T13:44:47;19.00;60.10
810;DHT22;387;48.772;9.186;2023-05-15T13:47:13;20.00;58.00
810;DHT22;387;48.772;9.186;2023-05-15T13:49:39;20.20;56.00
810;DHT22;387;48.772;9.186;2023-05-15T13:52:05;20.50;55.80
810;DHT22;387;48.772;9.186;2023-05-15T13:54:31;19.90;57.00
810;DHT22;387;48.772;9.186;2023-05-15T13:56:56;19.60;57.60
810;DHT22;387;48.772;9.186;2023-05-15T13:59:22;19.60;58.40
810;DHT22;387;48.772;9.186;2023-05-15T14:01:48;19.40;58.50
810;DHT22;387;48.772;9.186;2023-05-15T14:04:13;18.90;59.70
810;DHT22;387;48.772;9.186;2023-05-15T14:06:39;18.40;60.10
810;DHT22;387;48.772;9.186;2023-05-15T14:09:05;18.50;60.30
810;DHT22;387;48.772;9.186;2023-05-15T14:11:32;19.10;59.70
810;DHT22;387;48.772;9.186;2023-05-15T14:13:57;19.50;58.00
810;DHT22;387;48.772;9.186;2023-05-15T14:16:23;19.20;58.90
810;DHT22;387;48.772;9.186;2023-05-15T14:18:49;19.10;59.50
810;DHT22;387;48.772;9.186;2023-05-15T14:21:14;19.30;58.70
810;DHT22;387;48.772;9.186;2023-05-15T14:23:40;19.20;58.50
810;DHT22;387;48.772;9.186;2023-05-15T14:26:05;19.30;59.30
810;DHT22;387;48.772;9.186;2023-05-15T14:28:32;18.90;60.70
810;DHT22;387;48.772;9.186;2023-05-15T14:30:58;18.80;62.50
810;DHT22;387;48.772;9.186;2023-05-15T14:33:24;18.60;64.10
810;DHT22;387;48.772;9.186;2023-05-15T14:35:51;18.90;63.70
810;DHT22;387;48.772;9.186;2023-05-15T14:38:16;18.90;62.60
810;DHT22;387;48.772;9.186;2023-05-15T14:40:42;18.70;63.10
810;DHT22;387;48.772;9.186;2023-05-15T14:43:08;19.20;62.50
810;DHT22;387;48.772;9.186;2023-05-15T14:45:33;19.70;60.60
810;DHT22;387;48.772;9.186;2023-05-15T14:47:59;19.20;61.70
810;DHT22;387;48.772;9.186;2023-05-15T14:50:25;19.40;61.50
810;DHT22;387;48.772;9.186;2023-05-15T14:52:51;19.30;61.50
810;DHT22;387;48.772;9.186;2023-05-15T14:55:18;19.00;63.10
810;DHT22;387;48.772;9.186;2023-05-15T14:57:47;19.20;61.90
810;DHT22;387;48.772;9.186;2023-05-15T15:00:16;19.10;61.90
810;DHT22;387;48.772;9.186;2023-05-15T15:02:42;19.50;60.30
810;DHT22;387;48.772;9.186;2023-05-15T15:05:08;19.60;59.10
810;DHT22;387;48.772;9.186;2023-05-15T15:08:13;20.20;56.50
810;DHT22;387;48.772;9.186;2023-05-15T15:10:39;19.20;58.00
810;DHT22;387;48.772;9.186;2023-05-15T15:13:06;18.90;59.10
810;DHT22;387;48.772;9.186;2023-05-15T15:15:33;18.50;60.60
810;DHT22;387;48.772;9.186;2023-05-15T15:17:59;18.30;61.20
810;DHT22;387;48.772;9.186;2023-05-15T15:20:26;18.40;61.20
810;DHT22;387;48.772;9.186;2023-05-15T15:22:52;18.20;61.90
810;DHT22;387;48.772;9.186;2023-05-15T15:25:19;17.90;61.90
810;DHT22;387;48.772;9.186;2023-05-15T15:27:45;17.70;62.00
810;DHT22;387;48.772;9.186;2023-05-15T15:30:12;17.80;61.60
810;DHT22;387;48.772;9.186;2023-05-15T15:32:38;17.90;60.60
810;DHT22;387;48.772;9.186;2023-05-15T15:35:04;17.80;59.10
810;DHT22;387;48.772;9.186;2023-05-15T15:37:32;17.50;60.90
810;DHT22;387;48.772;9.186;2023-05-15T15:39:58;17.90;60.90
810;DHT22;387;48.772;9.186;2023-05-15T15:42:24;17.90;60.70
810;DHT22;387;48.772;9.186;2023-05-15T15:44:52;17.70;62.20
810;DHT22;387;48.772;9.186;2023-05-15T15:47:18;17.40;64.10
810;DHT22;387;48.772;9.186;2023-05-15T15:49:44;17.00;66.30
810;DHT22;387;48.772;9.186;2023-05-15T15:52:09;16.80;67.60
810;DHT22;387;48.772;9.186;2023-05-15T15:54:35;16.70;68.20
810;DHT22;387;48.772;9.186;2023-05-15T15:57:01;16.60;69.20
810;DHT22;387;48.772;9.186;2023-05-15T15:59:27;16.40;69.40
810;DHT22;387;48.772;9.186;2023-05-15T16:01:53;16.20;69.10
810;DHT22;387;48.772;9.186;2023-05-15T16:04:18;16.30;68.80
810;DHT22;387;48.772;9.186;2023-05-15T16:06:44;16.40;67.30
810;DHT22;387;48.772;9.186;2023-05-15T16:09:10;16.40;65.00
810;DHT22;387;48.772;9.186;2023-05-15T16:11:35;16.40;66.70
810;DHT22;387;48.772;9.186;2023-05-15T16:14:01;16.30;68.00
810;DHT22;387;48.772;9.186;2023-05-15T16:16:26;16.30;67.30
810;DHT22;387;48.772;9.186;2023-05-15T16:18:52;16.30;68.60
810;DHT22;387;48.772;9.186;2023-05-15T16:21:17;16.50;66.10
810;DHT22;387;48.772;9.186;2023-05-15T16:23:43;16.50;62.60
810;DHT22;387;48.772;9.186;2023-05-15T16:26:09;16.70;67.60
810;DHT22;387;48.772;9.186;2023-05-15T16:28:35;16.30;69.90
810;DHT22;387;48.772;9.186;2023-05-15T16:31:02;16.10;71.70
810;DHT22;387;48.772;9.186;2023-05-15T16:33:29;16.00;71.40
810;DHT22;387;48.772;9.186;2023-05-15T16:35:55;15.90;71.80
810;DHT22;387;48.772;9.186;2023-05-15T16:38:21;16.00;71.40
810;DHT22;387;48.772;9.186;2023-05-15T16:40:47;16.00;71.70
810;DHT22;387;48.772;9.186;2023-05-15T16:43:13;15.90;71.00
810;DHT22;387;48.772;9.186;2023-05-15T16:45:39;15.80;70.80
810;DHT22;387;48.772;9.186;2023-05-15T16:48:05;15.70;71.30
810;DHT22;387;48.772;9.186;2023-05-15T16:50:33;15.70;70.70
810;DHT22;387;48.772;9.186;2023-05-15T16:52:59;15.70;71.30
810;DHT22;387;48.772;9.186;2023-05-15T16:55:25;15.80;70.50